createdAt,value
2018-06-17T00:01:08.842Z,6.40
2018-06-17T00:03:37.044Z,6.40
2018-06-17T00:06:05.555Z,6.13
2018-06-17T00:08:34.071Z,6.47
2018-06-17T00:11:02.567Z,6.83
2018-06-17T00:13:31.075Z,6.00
2018-06-17T00:15:59.562Z,6.27
2018-06-17T00:18:28.085Z,6.83
2018-06-17T00:20:56.580Z,6.20
2018-06-17T00:23:25.110Z,6.13
2018-06-17T00:25:53.550Z,6.47
2018-06-17T00:28:22.043Z,6.90
2018-06-17T00:30:50.508Z,6.50
2018-06-17T00:33:19.042Z,7.03
2018-06-17T00:35:47.566Z,6.47
2018-06-17T00:38:17.058Z,7.20
2018-06-17T00:40:45.571Z,6.43
2018-06-17T00:43:14.052Z,6.60
2018-06-17T00:45:42.571Z,6.13
2018-06-17T00:48:11.027Z,6.47
2018-06-17T00:50:39.514Z,7.17
2018-06-17T00:53:09.690Z,7.17
2018-06-17T00:55:38.210Z,6.37
2018-06-17T00:58:06.802Z,7.27
2018-06-17T01:00:35.302Z,7.50
2018-06-17T01:03:03.820Z,7.27
2018-06-17T01:05:32.336Z,7.10
2018-06-17T01:08:00.803Z,6.90
2018-06-17T01:10:29.303Z,8.13
2018-06-17T01:12:57.766Z,6.87
2018-06-17T01:15:26.303Z,6.93
2018-06-17T01:17:54.802Z,7.13
2018-06-17T01:20:22.984Z,7.03
2018-06-17T01:22:51.538Z,7.30
2018-06-17T01:25:20.055Z,7.80
2018-06-17T01:27:48.607Z,7.13
2018-06-17T01:30:17.158Z,7.23
2018-06-17T01:32:45.674Z,7.50
2018-06-17T01:35:14.229Z,7.40
2018-06-17T01:37:43.416Z,7.30
2018-06-17T01:40:12.870Z,7.40
2018-06-17T01:42:44.546Z,6.57
2018-06-17T01:45:13.014Z,7.00
2018-06-17T01:47:41.514Z,7.70
2018-06-17T01:50:11.436Z,7.50
2018-06-17T01:52:39.998Z,7.40
2018-06-17T01:55:08.519Z,8.13
2018-06-17T01:57:37.042Z,8.07
2018-06-17T02:00:05.638Z,8.07
2018-06-17T02:02:34.224Z,7.53
2018-06-17T02:05:07.806Z,7.37
2018-06-17T02:07:41.520Z,7.93
2018-06-17T02:10:15.280Z,7.50
2018-06-17T02:12:43.875Z,7.73
2018-06-17T02:15:12.425Z,7.83
2018-06-17T02:17:41.031Z,8.07
2018-06-17T02:20:12.762Z,8.77
2018-06-17T02:22:41.282Z,7.80
2018-06-17T02:25:09.746Z,8.00
2018-06-17T02:27:38.322Z,8.00
2018-06-17T02:30:06.831Z,8.27
2018-06-17T02:32:35.307Z,8.70
2018-06-17T02:35:03.870Z,8.30
2018-06-17T02:37:32.778Z,8.27
2018-06-17T02:40:01.287Z,9.20
2018-06-17T02:42:29.782Z,9.33
2018-06-17T02:45:03.529Z,8.40
2018-06-17T02:47:37.347Z,8.57
2018-06-17T02:50:11.217Z,9.20
2018-06-17T02:52:45.107Z,7.90
2018-06-17T02:55:13.629Z,8.90
2018-06-17T02:57:42.151Z,8.80
2018-06-17T03:00:10.681Z,8.60
2018-06-17T03:02:39.229Z,8.37
2018-06-17T03:05:07.807Z,8.83
2018-06-17T03:07:36.330Z,9.30
2018-06-17T03:10:04.961Z,9.57
2018-06-17T03:12:33.455Z,9.50
2018-06-17T03:15:02.015Z,9.37
2018-06-17T03:17:30.531Z,9.50
2018-06-17T03:19:59.087Z,8.67
2018-06-17T03:22:27.651Z,9.67
2018-06-17T03:25:01.959Z,9.13
2018-06-17T03:27:35.765Z,9.20
2018-06-17T03:30:13.213Z,9.13
2018-06-17T03:32:46.988Z,8.97
2018-06-17T03:35:20.910Z,9.53
2018-06-17T03:37:49.432Z,9.83
2018-06-17T03:40:17.678Z,9.17
2018-06-17T03:42:46.163Z,9.37
2018-06-17T03:45:14.668Z,8.97
2018-06-17T03:47:43.118Z,9.23
2018-06-17T03:50:12.715Z,9.73
2018-06-17T03:52:41.190Z,10.27
2018-06-17T03:55:09.683Z,9.63
2018-06-17T03:57:38.131Z,10.00
2018-06-17T04:00:06.624Z,10.73
2018-06-17T04:02:35.125Z,9.90
2018-06-17T04:05:08.836Z,9.63
2018-06-17T04:07:37.426Z,10.10
2018-06-17T04:10:06.150Z,9.83
2018-06-17T04:12:34.984Z,10.23
2018-06-17T04:15:03.532Z,9.50
2018-06-17T04:17:32.020Z,10.50
2018-06-17T04:20:00.501Z,9.87
2018-06-17T04:22:29.005Z,11.37
2018-06-17T04:24:57.512Z,10.50
2018-06-17T04:27:26.038Z,10.03
2018-06-17T04:29:54.511Z,10.13
2018-06-17T04:32:23.945Z,9.97
2018-06-17T04:34:52.448Z,9.70
2018-06-17T04:37:20.950Z,10.37
2018-06-17T04:39:49.386Z,7.33
2018-06-17T04:42:17.916Z,9.93
2018-06-17T04:44:46.800Z,9.60
2018-06-17T04:47:15.331Z,9.30
2018-06-17T04:49:43.816Z,10.47
2018-06-17T04:52:12.296Z,10.50
2018-06-17T04:54:40.803Z,10.10
2018-06-17T04:57:09.262Z,10.03
2018-06-17T04:59:37.779Z,10.17
2018-06-17T05:02:06.406Z,10.20
2018-06-17T05:04:34.947Z,10.77
2018-06-17T05:07:03.990Z,10.33
2018-06-17T05:09:32.554Z,10.23
2018-06-17T05:12:01.033Z,9.83
2018-06-17T05:14:29.544Z,9.90
2018-06-17T05:16:58.034Z,9.97
2018-06-17T05:19:26.531Z,9.20
2018-06-17T05:21:54.998Z,9.40
2018-06-17T05:24:23.516Z,8.77
2018-06-17T05:26:52.022Z,8.37
2018-06-17T05:29:20.526Z,8.30
2018-06-17T05:31:48.989Z,8.87
2018-06-17T05:34:17.500Z,8.40
2018-06-17T05:36:45.994Z,7.43
2018-06-17T05:39:14.543Z,7.57
2018-06-17T05:41:43.039Z,7.03
2018-06-17T05:44:11.556Z,7.03
2018-06-17T05:46:40.047Z,7.57
2018-06-17T05:49:08.545Z,6.87
2018-06-17T05:51:37.054Z,6.37
2018-06-17T05:54:05.563Z,6.97
2018-06-17T05:56:34.054Z,6.57
2018-06-17T05:59:02.539Z,6.50
2018-06-17T06:01:31.082Z,6.63
2018-06-17T06:03:59.624Z,6.40
2018-06-17T06:06:28.082Z,6.37
2018-06-17T06:08:56.552Z,7.00
2018-06-17T06:11:25.072Z,6.00
2018-06-17T06:13:53.563Z,5.60
2018-06-17T06:16:23.194Z,5.63
2018-06-17T06:18:51.647Z,5.70
2018-06-17T06:21:20.147Z,5.77
2018-06-17T06:23:48.607Z,5.47
2018-06-17T06:26:17.122Z,5.60
2018-06-17T06:28:45.956Z,5.43
2018-06-17T06:31:14.818Z,5.10
2018-06-17T06:33:43.386Z,5.50
2018-06-17T06:36:11.917Z,5.03
2018-06-17T06:38:40.474Z,5.47
2018-06-17T06:41:08.934Z,4.80
2018-06-17T06:43:37.467Z,5.07
2018-06-17T06:46:06.133Z,5.13
2018-06-17T06:48:34.794Z,5.30
2018-06-17T06:51:03.127Z,5.17
2018-06-17T06:53:31.593Z,4.53
2018-06-17T06:56:00.083Z,5.77
2018-06-17T06:58:28.607Z,5.23
2018-06-17T07:00:57.103Z,4.97
2018-06-17T07:03:36.692Z,5.40
2018-06-17T07:06:16.770Z,5.03
2018-06-17T07:08:56.471Z,6.97
2018-06-17T07:11:24.979Z,6.57
2018-06-17T07:13:53.523Z,5.07
2018-06-17T07:16:33.090Z,5.10
2018-06-17T07:19:01.629Z,4.67
2018-06-17T07:21:30.125Z,5.50
2018-06-17T07:23:58.633Z,4.60
2018-06-17T07:26:40.521Z,5.40
2018-06-17T07:29:20.867Z,5.20
2018-06-17T07:31:49.367Z,4.90
2018-06-17T07:34:18.152Z,4.90
2018-06-17T07:36:46.703Z,5.40
2018-06-17T07:40:58.129Z,4.97
2018-06-17T07:43:26.667Z,4.63
2018-06-17T07:45:55.191Z,4.80
2018-06-17T07:49:45.000Z,4.87
2018-06-17T07:52:25.724Z,5.10
2018-06-17T07:54:54.386Z,5.43
2018-06-17T07:57:24.100Z,4.60
2018-06-17T07:59:52.644Z,4.80
2018-06-17T08:02:21.146Z,4.90
2018-06-17T08:04:49.723Z,4.83
2018-06-17T08:07:18.259Z,4.43
2018-06-17T08:09:48.410Z,4.57
2018-06-17T08:12:16.954Z,4.77
2018-06-17T08:14:45.534Z,4.60
2018-06-17T08:17:14.031Z,4.47
2018-06-17T08:19:42.691Z,4.70
2018-06-17T08:22:11.197Z,4.70
2018-06-17T08:24:39.863Z,4.60
2018-06-17T08:27:08.430Z,4.43
2018-06-17T08:29:37.438Z,4.57
2018-06-17T08:32:06.046Z,4.67
2018-06-17T08:34:35.087Z,4.67
2018-06-17T08:37:03.642Z,4.50
2018-06-17T08:39:32.122Z,5.10
2018-06-17T08:42:00.647Z,5.30
2018-06-17T08:44:29.162Z,4.77
2018-06-17T08:46:57.747Z,4.67
2018-06-17T08:49:29.609Z,4.30
2018-06-17T08:51:58.183Z,4.47
2018-06-17T08:54:26.672Z,4.43
2018-06-17T08:56:55.162Z,4.37
2018-06-17T08:59:23.706Z,4.30
2018-06-17T09:01:51.908Z,3.90
2018-06-17T09:04:20.434Z,3.60
2018-06-17T09:06:48.978Z,4.10
2018-06-17T09:09:17.480Z,3.90
2018-06-17T09:11:46.027Z,4.07
2018-06-17T09:14:14.544Z,4.37
2018-06-17T09:16:43.054Z,4.53
2018-06-17T09:19:12.620Z,3.93
2018-06-17T09:21:41.167Z,4.13
2018-06-17T09:24:09.670Z,4.37
2018-06-17T09:26:38.139Z,3.60
2018-06-17T09:29:06.674Z,3.27
2018-06-17T09:31:35.571Z,3.50
2018-06-17T09:34:04.095Z,3.50
2018-06-17T09:36:32.639Z,3.57
2018-06-17T09:39:01.137Z,3.90
2018-06-17T09:41:29.710Z,3.97
2018-06-17T09:43:58.245Z,3.80
2018-06-17T09:46:26.761Z,3.67
2018-06-17T09:48:56.486Z,4.20
2018-06-17T09:51:25.052Z,3.90
2018-06-17T09:53:53.582Z,3.50
2018-06-17T09:56:22.075Z,3.50
2018-06-17T09:58:50.582Z,3.37
2018-06-17T10:01:19.131Z,3.47
2018-06-17T10:03:47.702Z,2.77
2018-06-17T10:06:16.254Z,3.33
2018-06-17T10:08:44.752Z,3.05
2018-06-17T10:11:13.304Z,3.27
2018-06-17T10:13:43.933Z,3.80
2018-06-17T10:16:13.168Z,2.92
2018-06-17T10:18:41.787Z,3.15
2018-06-17T10:21:10.714Z,3.20
2018-06-17T10:23:39.204Z,3.22
2018-06-17T10:26:07.789Z,3.40
2018-06-17T10:28:36.523Z,3.30
2018-06-17T10:31:06.320Z,3.22
2018-06-17T10:33:35.861Z,3.52
2018-06-17T10:36:04.419Z,3.50
2018-06-17T10:38:32.946Z,3.20
2018-06-17T10:41:01.917Z,3.95
2018-06-17T10:43:31.676Z,3.87
2018-06-17T10:46:00.203Z,4.05
2018-06-17T10:48:28.742Z,3.90
2018-06-17T10:50:57.226Z,4.05
2018-06-17T10:53:25.770Z,3.62
2018-06-17T10:55:54.319Z,3.50
2018-06-17T10:58:22.739Z,3.70
2018-06-17T11:00:51.310Z,3.90
2018-06-17T11:03:19.853Z,3.45
2018-06-17T11:05:48.376Z,3.92
2018-06-17T11:08:16.894Z,3.45
2018-06-17T11:10:45.798Z,3.50
2018-06-17T11:13:14.345Z,3.45
2018-06-17T11:15:42.827Z,3.17
2018-06-17T11:18:11.446Z,3.35
2018-06-17T11:20:39.935Z,3.20
2018-06-17T11:23:08.455Z,3.70
2018-06-17T11:25:36.938Z,3.30
2018-06-17T11:28:05.510Z,3.33
2018-06-17T11:30:34.034Z,3.40
2018-06-17T11:33:02.563Z,3.58
2018-06-17T11:35:31.046Z,3.30
2018-06-17T11:37:59.566Z,3.72
2018-06-17T11:40:28.019Z,3.72
2018-06-17T11:42:56.514Z,3.35
2018-06-17T11:45:24.990Z,3.17
2018-06-17T11:47:53.494Z,3.37
2018-06-17T11:50:21.993Z,3.77
2018-06-17T11:52:50.487Z,3.85
2018-06-17T11:55:18.990Z,3.87
2018-06-17T11:57:47.483Z,3.75
2018-06-17T12:00:15.986Z,3.15
2018-06-17T12:02:44.491Z,3.67
2018-06-17T12:05:13.019Z,3.15
2018-06-17T12:07:41.523Z,3.72
2018-06-17T12:10:10.040Z,3.10
2018-06-17T12:12:40.254Z,3.45
2018-06-17T12:15:08.882Z,3.27
2018-06-17T12:17:37.419Z,3.75
2018-06-17T12:20:05.976Z,3.40
2018-06-17T12:22:34.618Z,3.73
2018-06-17T12:25:03.147Z,3.37
2018-06-17T12:27:31.642Z,3.50
2018-06-17T12:30:00.167Z,3.67
2018-06-17T12:32:33.010Z,3.63
2018-06-17T12:35:03.143Z,3.70
2018-06-17T12:37:31.666Z,3.53
2018-06-17T12:40:00.218Z,3.37
2018-06-17T12:42:28.719Z,3.50
2018-06-17T12:44:57.230Z,3.40
2018-06-17T12:47:25.726Z,3.17
2018-06-17T12:49:54.398Z,4.05
2018-06-17T12:52:23.330Z,3.33
2018-06-17T12:54:52.111Z,3.87
2018-06-17T12:57:20.651Z,4.00
2018-06-17T12:59:49.172Z,3.22
2018-06-17T13:02:17.702Z,3.37
2018-06-17T13:04:46.198Z,3.30
2018-06-17T13:07:14.815Z,3.30
2018-06-17T13:09:43.314Z,3.87
2018-06-17T13:12:11.815Z,3.87
2018-06-17T13:14:40.382Z,3.50
2018-06-17T13:17:09.547Z,3.73
2018-06-17T13:19:38.031Z,3.63
2018-06-17T13:22:07.621Z,3.63
2018-06-17T13:24:36.110Z,2.90
2018-06-17T13:27:04.695Z,3.20
2018-06-17T13:29:33.206Z,3.30
2018-06-17T13:32:01.704Z,3.97
2018-06-17T13:34:30.414Z,4.03
2018-06-17T13:36:59.158Z,4.00
2018-06-17T13:39:27.760Z,3.73
2018-06-17T13:41:56.349Z,4.10
2018-06-17T13:44:24.882Z,4.20
2018-06-17T13:46:53.466Z,4.33
2018-06-17T13:49:21.994Z,4.40
2018-06-17T13:51:50.610Z,4.40
2018-06-17T13:54:19.111Z,4.60
2018-06-17T13:56:50.100Z,3.97
2018-06-17T13:59:18.630Z,4.57
2018-06-17T14:01:47.182Z,4.30
2018-06-17T14:04:15.699Z,4.10
2018-06-17T14:06:44.274Z,4.23
2018-06-17T14:09:12.867Z,4.40
2018-06-17T14:11:41.276Z,4.43
2018-06-17T14:14:09.802Z,4.40
2018-06-17T14:16:38.306Z,4.23
2018-06-17T14:19:10.093Z,4.20
2018-06-17T14:21:38.550Z,4.50
2018-06-17T14:24:07.282Z,4.00
2018-06-17T14:26:35.766Z,4.20
2018-06-17T14:29:06.623Z,3.97
2018-06-17T14:31:35.107Z,4.10
2018-06-17T14:34:03.648Z,4.30
2018-06-17T14:36:32.138Z,3.90
2018-06-17T14:39:00.663Z,3.90
2018-06-17T14:41:28.812Z,4.23
2018-06-17T14:44:02.767Z,3.83
2018-06-17T14:46:36.577Z,4.10
2018-06-17T14:49:10.531Z,4.10
2018-06-17T14:51:44.403Z,4.10
2018-06-17T14:54:12.916Z,3.93
2018-06-17T14:56:41.428Z,4.10
2018-06-17T14:59:09.943Z,4.30
2018-06-17T15:01:38.463Z,4.07
2018-06-17T15:04:06.945Z,3.40
2018-06-17T15:06:36.622Z,4.10
2018-06-17T15:09:10.231Z,3.73
2018-06-17T15:11:38.804Z,4.20
2018-06-17T15:14:07.336Z,3.83
2018-06-17T15:16:35.890Z,4.33
2018-06-17T15:19:04.373Z,4.23
2018-06-17T15:21:33.063Z,3.80
2018-06-17T15:24:01.527Z,4.60
2018-06-17T15:26:30.043Z,4.23
2018-06-17T15:28:58.574Z,4.03
2018-06-17T15:31:32.313Z,4.23
2018-06-17T15:34:06.065Z,4.00
2018-06-17T15:36:39.829Z,4.53
2018-06-17T15:39:13.796Z,4.70
2018-06-17T15:41:42.359Z,4.17
2018-06-17T15:44:10.932Z,3.97
2018-06-17T15:46:39.392Z,4.30
2018-06-17T15:49:07.870Z,4.47
2018-06-17T15:51:36.434Z,4.27
2018-06-17T15:54:04.990Z,4.07
2018-06-17T15:56:33.526Z,3.93
2018-06-17T15:59:02.098Z,3.83
2018-06-17T16:01:30.636Z,4.60
2018-06-17T16:03:58.818Z,4.13
2018-06-17T16:06:27.345Z,4.10
2018-06-17T16:08:55.854Z,4.23
2018-06-17T16:11:24.479Z,4.03
2018-06-17T16:13:58.367Z,4.03
2018-06-17T16:16:32.201Z,4.37
2018-06-17T16:19:06.060Z,4.30
2018-06-17T16:21:34.658Z,5.73
2018-06-17T16:24:03.190Z,4.30
2018-06-17T16:26:31.700Z,4.53
2018-06-17T16:29:00.169Z,4.00
2018-06-17T16:31:29.338Z,4.93
2018-06-17T16:33:57.834Z,4.33
2018-06-17T16:36:26.331Z,4.40
2018-06-17T16:38:54.867Z,4.10
2018-06-17T16:41:23.348Z,3.23
2018-06-17T16:43:51.902Z,4.00
2018-06-17T16:46:20.395Z,4.30
2018-06-17T16:48:48.932Z,4.93
2018-06-17T16:51:22.722Z,5.10
2018-06-17T16:53:56.516Z,4.40
2018-06-17T16:56:30.426Z,4.03
2018-06-17T16:59:04.088Z,4.30
2018-06-17T17:01:32.573Z,4.30
2018-06-17T17:04:01.085Z,4.50
2018-06-17T17:06:29.560Z,4.40
2018-06-17T17:08:58.126Z,3.83
2018-06-17T17:11:26.614Z,4.60
2018-06-17T17:13:55.117Z,3.97
2018-06-17T17:16:23.638Z,4.43
2018-06-17T17:18:52.162Z,4.10
2018-06-17T17:21:20.694Z,3.90
2018-06-17T17:23:49.307Z,4.20
2018-06-17T17:26:17.846Z,4.33
2018-06-17T17:28:47.181Z,4.53
2018-06-17T17:31:15.719Z,3.97
2018-06-17T17:33:49.548Z,4.30
2018-06-17T17:36:23.385Z,3.90
2018-06-17T17:38:57.028Z,4.50
2018-06-17T17:41:25.557Z,4.27
2018-06-17T17:43:54.060Z,4.17
2018-06-17T17:46:27.969Z,4.20
2018-06-17T17:48:56.448Z,3.57
2018-06-17T17:51:24.964Z,3.63
2018-06-17T17:53:53.504Z,3.77
2018-06-17T17:56:21.981Z,4.80
2018-06-17T17:58:50.487Z,4.57
2018-06-17T18:01:19.131Z,4.37
2018-06-17T18:03:49.577Z,4.40
2018-06-17T18:06:18.143Z,4.67
2018-06-17T18:08:46.650Z,4.33
2018-06-17T18:11:15.245Z,4.40
2018-06-17T18:13:43.716Z,4.70
2018-06-17T18:16:12.386Z,4.50
2018-06-17T18:18:41.175Z,4.60
2018-06-17T18:21:09.747Z,4.87
2018-06-17T18:23:38.387Z,4.77
2018-06-17T18:26:12.159Z,4.60
2018-06-17T18:28:45.947Z,4.73
2018-06-17T18:31:14.518Z,4.73
2018-06-17T18:33:48.431Z,4.40
2018-06-17T18:36:17.384Z,4.13
2018-06-17T18:38:47.121Z,4.30
2018-06-17T18:41:16.256Z,4.50
2018-06-17T18:43:44.755Z,5.00
2018-06-17T18:46:14.248Z,4.40
2018-06-17T18:48:42.792Z,4.53
2018-06-17T18:51:11.288Z,4.57
2018-06-17T18:53:39.807Z,4.83
2018-06-17T18:56:08.362Z,5.23
2018-06-17T18:58:36.983Z,4.67
2018-06-17T19:01:05.540Z,5.00
2018-06-17T19:03:34.059Z,4.67
2018-06-17T19:06:02.545Z,4.73
2018-06-17T19:08:36.431Z,4.80
2018-06-17T19:11:10.249Z,4.70
2018-06-17T19:13:44.021Z,4.80
2018-06-17T19:16:18.135Z,5.10
2018-06-17T19:18:46.723Z,5.10
2018-06-17T19:21:15.203Z,5.10
2018-06-17T19:23:43.715Z,4.83
2018-06-17T19:26:12.316Z,4.43
2018-06-17T19:28:40.840Z,4.50
2018-06-17T19:31:09.340Z,4.90
2018-06-17T19:33:37.863Z,5.05
2018-06-17T19:36:06.406Z,4.93
2018-06-17T19:38:35.000Z,5.07
2018-06-17T19:41:04.580Z,4.83
2018-06-17T19:43:33.108Z,4.67
2018-06-17T19:46:01.619Z,5.03
2018-06-17T19:48:30.167Z,4.90
2018-06-17T19:51:04.055Z,4.80
2018-06-17T19:53:39.610Z,5.17
2018-06-17T19:56:13.499Z,4.83
2018-06-17T19:58:47.278Z,4.93
2018-06-17T20:01:15.847Z,5.30
2018-06-17T20:03:44.337Z,5.10
2018-06-17T20:06:12.957Z,4.90
2018-06-17T20:08:41.380Z,4.77
2018-06-17T20:11:09.918Z,4.90
2018-06-17T20:13:38.403Z,5.10
2018-06-17T20:16:06.983Z,5.10
2018-06-17T20:18:35.732Z,5.10
2018-06-17T20:21:04.290Z,5.20
2018-06-17T20:23:34.835Z,4.53
2018-06-17T20:26:03.323Z,5.17
2018-06-17T20:28:31.859Z,4.53
2018-06-17T20:31:05.164Z,4.93
2018-06-17T20:33:39.023Z,4.80
2018-06-17T20:36:12.772Z,4.40
2018-06-17T20:38:46.566Z,4.70
2018-06-17T20:41:20.419Z,5.07
2018-06-17T20:43:50.583Z,4.60
2018-06-17T20:46:19.098Z,4.13
2018-06-17T20:48:48.363Z,4.70
2018-06-17T20:51:17.183Z,4.63
2018-06-17T20:53:45.699Z,4.40
2018-06-17T20:56:14.183Z,4.60
2018-06-17T20:58:42.694Z,4.53
2018-06-17T21:01:12.923Z,4.53
2018-06-17T21:03:41.443Z,4.70
2018-06-17T21:06:09.935Z,5.33
2018-06-17T21:08:38.459Z,4.70
2018-06-17T21:11:06.943Z,4.87
2018-06-17T21:13:35.427Z,4.40
2018-06-17T21:16:03.978Z,4.80
2018-06-17T21:18:38.286Z,4.97
2018-06-17T21:21:12.198Z,4.43
2018-06-17T21:23:45.907Z,4.90
2018-06-17T21:26:19.766Z,4.90
2018-06-17T21:28:48.227Z,5.40
2018-06-17T21:31:16.734Z,4.73
2018-06-17T21:33:45.195Z,5.13
2018-06-17T21:36:13.720Z,5.27
2018-06-17T21:38:41.962Z,5.30
2018-06-17T21:41:10.487Z,5.27
2018-06-17T21:43:39.018Z,4.83
2018-06-17T21:46:07.595Z,5.10
2018-06-17T21:48:36.085Z,5.17
2018-06-17T21:51:04.596Z,5.47
2018-06-17T21:53:33.214Z,5.17
2018-06-17T21:56:01.747Z,5.40
2018-06-17T21:58:35.443Z,5.00
2018-06-17T22:01:04.024Z,5.47
2018-06-17T22:03:32.995Z,5.00
2018-06-17T22:06:01.491Z,4.77
2018-06-17T22:08:35.427Z,5.37
2018-06-17T22:11:11.497Z,5.83
2018-06-17T22:13:45.271Z,6.20
2018-06-17T22:16:19.045Z,5.47
2018-06-17T22:18:47.551Z,5.57
2018-06-17T22:21:16.050Z,5.43
2018-06-17T22:23:44.546Z,5.70
2018-06-17T22:26:13.046Z,5.97
2018-06-17T22:28:41.546Z,5.67
2018-06-17T22:31:10.286Z,5.93
2018-06-17T22:33:38.774Z,5.67
2018-06-17T22:36:07.283Z,6.20
2018-06-17T22:38:35.765Z,6.27
2018-06-17T22:41:05.275Z,5.50
2018-06-17T22:43:33.772Z,5.83
2018-06-17T22:46:02.313Z,5.50
2018-06-17T22:48:30.782Z,5.63
2018-06-17T22:50:59.270Z,6.10
2018-06-17T22:53:39.346Z,5.47
2018-06-17T22:56:12.076Z,5.77
2018-06-17T22:58:45.807Z,5.50
2018-06-17T23:03:25.382Z,5.80
2018-06-17T23:05:58.991Z,5.60
2018-06-17T23:08:32.876Z,6.57
2018-06-17T23:11:01.362Z,6.20
2018-06-17T23:13:29.885Z,6.70
2018-06-17T23:15:58.408Z,6.30
2018-06-17T23:18:26.905Z,6.63
2018-06-17T23:20:55.725Z,6.47
2018-06-17T23:23:24.236Z,6.00
2018-06-17T23:25:52.758Z,6.70
2018-06-17T23:28:21.263Z,5.83
2018-06-17T23:30:49.736Z,6.93
2018-06-17T23:33:18.274Z,6.13
2018-06-17T23:35:46.743Z,6.10
2018-06-17T23:38:15.933Z,6.33
2018-06-17T23:40:44.426Z,6.53
2018-06-17T23:43:12.986Z,5.93
2018-06-17T23:45:46.886Z,6.37
2018-06-17T23:48:21.526Z,6.17
2018-06-17T23:50:55.596Z,6.50
2018-06-17T23:53:29.242Z,6.30
2018-06-17T23:56:03.101Z,6.43
2018-06-17T23:58:31.680Z,6.10
